sensor_id;sensor_type;location;lat;lon;timestamp;P1;durP1;ratioP1;P2;durP2;ratioP2
48403;SDS011;34202;52.536;6.042;2023-05-20T00:00:31;9.40;;;4.80;;
48403;SDS011;34202;52.536;6.042;2023-05-20T00:05:32;11.10;;;4.70;;
48403;SDS011;34202;52.536;6.042;2023-05-20T00:10:32;9.10;;;5.00;;
48403;SDS011;34202;52.536;6.042;2023-05-20T00:15:33;10.60;;;5.40;;
48403;SDS011;34202;52.536;6.042;2023-05-20T00:20:35;10.30;;;4.90;;
48403;SDS011;34202;52.536;6.042;2023-05-20T00:25:35;9.00;;;4.80;;
48403;SDS011;34202;52.536;6.042;2023-05-20T00:30:38;10.20;;;4.90;;
48403;SDS011;34202;52.536;6.042;2023-05-20T00:35:40;13.40;;;5.90;;
48403;SDS011;34202;52.536;6.042;2023-05-20T00:40:40;9.20;;;5.10;;
48403;SDS011;34202;52.536;6.042;2023-05-20T00:45:41;9.80;;;4.90;;
48403;SDS011;34202;52.536;6.042;2023-05-20T00:50:41;12.80;;;5.30;;
48403;SDS011;34202;52.536;6.042;2023-05-20T00:55:42;13.10;;;6.10;;
48403;SDS011;34202;52.536;6.042;2023-05-20T01:00:43;8.60;;;4.90;;
48403;SDS011;34202;52.536;6.042;2023-05-20T01:05:43;8.10;;;5.00;;
48403;SDS011;34202;52.536;6.042;2023-05-20T01:10:44;11.30;;;5.50;;
48403;SDS011;34202;52.536;6.042;2023-05-20T01:15:47;6.80;;;5.20;;
48403;SDS011;34202;52.536;6.042;2023-05-20T01:20:48;11.70;;;5.30;;
48403;SDS011;34202;52.536;6.042;2023-05-20T01:25:52;12.60;;;5.50;;
48403;SDS011;34202;52.536;6.042;2023-05-20T01:30:53;10.30;;;5.50;;
48403;SDS011;34202;52.536;6.042;2023-05-20T01:35:58;9.80;;;6.20;;
48403;SDS011;34202;52.536;6.042;2023-05-20T01:41:00;13.30;;;6.20;;
48403;SDS011;34202;52.536;6.042;2023-05-20T01:46:06;10.60;;;6.20;;
48403;SDS011;34202;52.536;6.042;2023-05-20T01:51:07;11.20;;;5.20;;
48403;SDS011;34202;52.536;6.042;2023-05-20T01:56:07;6.50;;;5.00;;
48403;SDS011;34202;52.536;6.042;2023-05-20T02:01:08;12.20;;;6.50;;
48403;SDS011;34202;52.536;6.042;2023-05-20T02:06:08;13.90;;;7.40;;
48403;SDS011;34202;52.536;6.042;2023-05-20T02:11:09;12.40;;;6.80;;
48403;SDS011;34202;52.536;6.042;2023-05-20T02:16:09;12.70;;;6.10;;
48403;SDS011;34202;52.536;6.042;2023-05-20T02:21:10;14.80;;;6.00;;
48403;SDS011;34202;52.536;6.042;2023-05-20T02:26:10;14.20;;;5.60;;
48403;SDS011;34202;52.536;6.042;2023-05-20T02:31:14;10.00;;;5.90;;
48403;SDS011;34202;52.536;6.042;2023-05-20T02:36:15;12.20;;;6.90;;
48403;SDS011;34202;52.536;6.042;2023-05-20T02:41:16;6.80;;;5.20;;
48403;SDS011;34202;52.536;6.042;2023-05-20T02:46:16;13.30;;;5.70;;
48403;SDS011;34202;52.536;6.042;2023-05-20T02:51:18;9.40;;;6.00;;
48403;SDS011;34202;52.536;6.042;2023-05-20T02:56:18;9.40;;;5.70;;
48403;SDS011;34202;52.536;6.042;2023-05-20T03:01:20;15.90;;;6.50;;
48403;SDS011;34202;52.536;6.042;2023-05-20T03:06:20;13.70;;;7.40;;
48403;SDS011;34202;52.536;6.042;2023-05-20T03:11:21;14.20;;;5.80;;
48403;SDS011;34202;52.536;6.042;2023-05-20T03:16:21;12.90;;;5.90;;
48403;SDS011;34202;52.536;6.042;2023-05-20T03:21:24;9.40;;;6.00;;
48403;SDS011;34202;52.536;6.042;2023-05-20T03:26:25;9.70;;;5.20;;
48403;SDS011;34202;52.536;6.042;2023-05-20T03:31:25;10.90;;;6.20;;
48403;SDS011;34202;52.536;6.042;2023-05-20T03:36:26;9.10;;;5.50;;
48403;SDS011;34202;52.536;6.042;2023-05-20T03:41:27;7.00;;;4.60;;
48403;SDS011;34202;52.536;6.042;2023-05-20T03:46:27;8.10;;;5.40;;
48403;SDS011;34202;52.536;6.042;2023-05-20T03:51:29;11.70;;;5.50;;
48403;SDS011;34202;52.536;6.042;2023-05-20T03:56:30;6.90;;;4.60;;
48403;SDS011;34202;52.536;6.042;2023-05-20T04:01:30;10.80;;;6.00;;
48403;SDS011;34202;52.536;6.042;2023-05-20T04:06:31;10.10;;;4.70;;
48403;SDS011;34202;52.536;6.042;2023-05-20T04:11:31;6.70;;;4.40;;
48403;SDS011;34202;52.536;6.042;2023-05-20T04:16:32;9.90;;;5.00;;
48403;SDS011;34202;52.536;6.042;2023-05-20T04:21:32;8.70;;;4.60;;
48403;SDS011;34202;52.536;6.042;2023-05-20T04:26:32;10.70;;;4.30;;
48403;SDS011;34202;52.536;6.042;2023-05-20T04:31:34;5.10;;;4.10;;
48403;SDS011;34202;52.536;6.042;2023-05-20T04:36:34;9.20;;;4.70;;
48403;SDS011;34202;52.536;6.042;2023-05-20T04:41:37;6.90;;;4.20;;
48403;SDS011;34202;52.536;6.042;2023-05-20T04:46:37;10.10;;;4.90;;
48403;SDS011;34202;52.536;6.042;2023-05-20T04:51:38;7.10;;;4.10;;
48403;SDS011;34202;52.536;6.042;2023-05-20T04:56:40;5.40;;;3.80;;
48403;SDS011;34202;52.536;6.042;2023-05-20T05:01:41;5.70;;;4.10;;
48403;SDS011;34202;52.536;6.042;2023-05-20T05:06:41;6.30;;;3.50;;
48403;SDS011;34202;52.536;6.042;2023-05-20T05:11:42;6.50;;;3.80;;
48403;SDS011;34202;52.536;6.042;2023-05-20T05:16:42;6.70;;;2.80;;
48403;SDS011;34202;52.536;6.042;2023-05-20T05:21:42;6.70;;;3.80;;
48403;SDS011;34202;52.536;6.042;2023-05-20T05:26:43;5.00;;;3.30;;
48403;SDS011;34202;52.536;6.042;2023-05-20T05:31:43;7.30;;;3.50;;
48403;SDS011;34202;52.536;6.042;2023-05-20T05:36:43;8.10;;;3.20;;
48403;SDS011;34202;52.536;6.042;2023-05-20T05:41:44;7.00;;;3.10;;
48403;SDS011;34202;52.536;6.042;2023-05-20T05:46:44;5.40;;;3.40;;
48403;SDS011;34202;52.536;6.042;2023-05-20T05:51:45;6.10;;;3.30;;
48403;SDS011;34202;52.536;6.042;2023-05-20T05:56:45;8.40;;;2.60;;
48403;SDS011;34202;52.536;6.042;2023-05-20T06:01:46;3.60;;;2.40;;
48403;SDS011;34202;52.536;6.042;2023-05-20T06:06:46;5.50;;;3.20;;
48403;SDS011;34202;52.536;6.042;2023-05-20T06:11:47;5.00;;;2.30;;
48403;SDS011;34202;52.536;6.042;2023-05-20T06:16:47;5.00;;;2.60;;
48403;SDS011;34202;52.536;6.042;2023-05-20T06:21:48;3.90;;;2.20;;
48403;SDS011;34202;52.536;6.042;2023-05-20T06:26:48;4.20;;;2.50;;
48403;SDS011;34202;52.536;6.042;2023-05-20T06:31:50;4.30;;;2.10;;
48403;SDS011;34202;52.536;6.042;2023-05-20T06:36:50;7.90;;;2.40;;
48403;SDS011;34202;52.536;6.042;2023-05-20T06:41:52;5.40;;;2.50;;
48403;SDS011;34202;52.536;6.042;2023-05-20T06:46:52;3.60;;;1.90;;
48403;SDS011;34202;52.536;6.042;2023-05-20T06:51:52;4.20;;;2.50;;
48403;SDS011;34202;52.536;6.042;2023-05-20T06:56:53;3.70;;;2.20;;
48403;SDS011;34202;52.536;6.042;2023-05-20T07:01:53;9.30;;;2.90;;
48403;SDS011;34202;52.536;6.042;2023-05-20T07:06:54;3.00;;;2.40;;
48403;SDS011;34202;52.536;6.042;2023-05-20T07:11:54;5.20;;;2.10;;
48403;SDS011;34202;52.536;6.042;2023-05-20T07:16:54;4.50;;;2.40;;
48403;SDS011;34202;52.536;6.042;2023-05-20T07:21:55;5.10;;;2.60;;
48403;SDS011;34202;52.536;6.042;2023-05-20T07:26:55;3.20;;;2.40;;
48403;SDS011;34202;52.536;6.042;2023-05-20T07:31:56;3.60;;;2.20;;
48403;SDS011;34202;52.536;6.042;2023-05-20T07:36:56;20.70;;;3.90;;
48403;SDS011;34202;52.536;6.042;2023-05-20T07:41:57;19.40;;;4.00;;
48403;SDS011;34202;52.536;6.042;2023-05-20T07:46:57;4.80;;;2.10;;
48403;SDS011;34202;52.536;6.042;2023-05-20T07:51:58;5.10;;;2.20;;
48403;SDS011;34202;52.536;6.042;2023-05-20T07:56:58;6.10;;;3.30;;
48403;SDS011;34202;52.536;6.042;2023-05-20T08:01:59;3.40;;;2.20;;
48403;SDS011;34202;52.536;6.042;2023-05-20T08:06:59;4.60;;;2.50;;
48403;SDS011;34202;52.536;6.042;2023-05-20T08:12:00;6.70;;;2.90;;
48403;SDS011;34202;52.536;6.042;2023-05-20T08:17:01;3.80;;;2.30;;
48403;SDS011;34202;52.536;6.042;2023-05-20T08:22:01;5.70;;;2.80;;
48403;SDS011;34202;52.536;6.042;2023-05-20T08:27:02;3.10;;;1.90;;
48403;SDS011;34202;52.536;6.042;2023-05-20T08:32:03;4.20;;;1.80;;
48403;SDS011;34202;52.536;6.042;2023-05-20T08:37:04;6.80;;;1.80;;
48403;SDS011;34202;52.536;6.042;2023-05-20T08:42:04;3.00;;;2.00;;
48403;SDS011;34202;52.536;6.042;2023-05-20T08:47:07;2.50;;;1.80;;
48403;SDS011;34202;52.536;6.042;2023-05-20T08:52:09;4.50;;;1.70;;
48403;SDS011;34202;52.536;6.042;2023-05-20T08:57:12;3.00;;;1.90;;
48403;SDS011;34202;52.536;6.042;2023-05-20T09:02:14;3.50;;;2.20;;
48403;SDS011;34202;52.536;6.042;2023-05-20T09:07:24;6.50;;;1.70;;
48403;SDS011;34202;52.536;6.042;2023-05-20T09:12:26;2.20;;;1.80;;
48403;SDS011;34202;52.536;6.042;2023-05-20T09:17:26;4.80;;;1.90;;
48403;SDS011;34202;52.536;6.042;2023-05-20T09:22:27;3.10;;;1.50;;
48403;SDS011;34202;52.536;6.042;2023-05-20T09:27:28;3.20;;;1.80;;
48403;SDS011;34202;52.536;6.042;2023-05-20T09:32:28;3.60;;;1.70;;
48403;SDS011;34202;52.536;6.042;2023-05-20T09:37:29;2.00;;;1.50;;
48403;SDS011;34202;52.536;6.042;2023-05-20T09:42:37;2.70;;;1.30;;
48403;SDS011;34202;52.536;6.042;2023-05-20T09:47:41;2.80;;;1.40;;
48403;SDS011;34202;52.536;6.042;2023-05-20T09:52:43;5.10;;;2.10;;
48403;SDS011;34202;52.536;6.042;2023-05-20T09:57:43;4.50;;;1.60;;
48403;SDS011;34202;52.536;6.042;2023-05-20T10:02:46;2.00;;;1.40;;
48403;SDS011;34202;52.536;6.042;2023-05-20T10:18:31;3.60;;;1.60;;
48403;SDS011;34202;52.536;6.042;2023-05-20T10:23:42;2.10;;;1.40;;
48403;SDS011;34202;52.536;6.042;2023-05-20T10:28:44;2.80;;;1.60;;
48403;SDS011;34202;52.536;6.042;2023-05-20T10:33:45;4.50;;;1.90;;
48403;SDS011;34202;52.536;6.042;2023-05-20T10:38:54;1.90;;;1.20;;
48403;SDS011;34202;52.536;6.042;2023-05-20T10:44:01;3.30;;;1.80;;
48403;SDS011;34202;52.536;6.042;2023-05-20T10:49:03;2.30;;;1.50;;
48403;SDS011;34202;52.536;6.042;2023-05-20T10:54:04;3.90;;;1.50;;
48403;SDS011;34202;52.536;6.042;2023-05-20T10:59:05;1.90;;;1.20;;
48403;SDS011;34202;52.536;6.042;2023-05-20T11:04:06;1.50;;;1.40;;
48403;SDS011;34202;52.536;6.042;2023-05-20T11:09:07;4.00;;;1.80;;
48403;SDS011;34202;52.536;6.042;2023-05-20T11:14:09;8.10;;;1.70;;
48403;SDS011;34202;52.536;6.042;2023-05-20T11:24:21;4.20;;;1.50;;
48403;SDS011;34202;52.536;6.042;2023-05-20T11:29:25;46.10;;;5.90;;
48403;SDS011;34202;52.536;6.042;2023-05-20T11:34:31;2.70;;;2.10;;
48403;SDS011;34202;52.536;6.042;2023-05-20T11:39:34;3.10;;;1.30;;
48403;SDS011;34202;52.536;6.042;2023-05-20T11:44:34;3.70;;;1.50;;
48403;SDS011;34202;52.536;6.042;2023-05-20T11:49:38;16.00;;;2.30;;
48403;SDS011;34202;52.536;6.042;2023-05-20T11:54:39;3.60;;;1.70;;
48403;SDS011;34202;52.536;6.042;2023-05-20T11:59:39;3.40;;;1.30;;
48403;SDS011;34202;52.536;6.042;2023-05-20T12:04:40;4.00;;;1.70;;
48403;SDS011;34202;52.536;6.042;2023-05-20T12:09:40;4.60;;;1.70;;
48403;SDS011;34202;52.536;6.042;2023-05-20T12:14:40;2.00;;;1.20;;
48403;SDS011;34202;52.536;6.042;2023-05-20T12:19:41;5.10;;;1.50;;
48403;SDS011;34202;52.536;6.042;2023-05-20T12:24:41;5.00;;;1.70;;
48403;SDS011;34202;52.536;6.042;2023-05-20T12:29:41;5.90;;;1.30;;
48403;SDS011;34202;52.536;6.042;2023-05-20T12:34:42;3.30;;;1.40;;
48403;SDS011;34202;52.536;6.042;2023-05-20T12:39:42;3.40;;;1.70;;
48403;SDS011;34202;52.536;6.042;2023-05-20T12:44:42;4.30;;;1.20;;
48403;SDS011;34202;52.536;6.042;2023-05-20T12:49:43;1.90;;;1.10;;
48403;SDS011;34202;52.536;6.042;2023-05-20T12:54:43;3.70;;;1.10;;
48403;SDS011;34202;52.536;6.042;2023-05-20T12:59:44;3.10;;;1.30;;
48403;SDS011;34202;52.536;6.042;2023-05-20T13:04:45;7.40;;;1.30;;
48403;SDS011;34202;52.536;6.042;2023-05-20T13:09:45;3.80;;;1.50;;
48403;SDS011;34202;52.536;6.042;2023-05-20T13:14:46;3.70;;;1.10;;
48403;SDS011;34202;52.536;6.042;2023-05-20T13:19:46;4.30;;;1.40;;
48403;SDS011;34202;52.536;6.042;2023-05-20T13:24:47;3.70;;;0.90;;
48403;SDS011;34202;52.536;6.042;2023-05-20T13:29:47;3.20;;;1.00;;
48403;SDS011;34202;52.536;6.042;2023-05-20T13:34:47;2.00;;;1.30;;
48403;SDS011;34202;52.536;6.042;2023-05-20T13:39:48;5.50;;;1.40;;
48403;SDS011;34202;52.536;6.042;2023-05-20T13:44:48;4.40;;;1.60;;
48403;SDS011;34202;52.536;6.042;2023-05-20T13:49:48;5.40;;;3.20;;
48403;SDS011;34202;52.536;6.042;2023-05-20T13:54:49;3.30;;;1.40;;
48403;SDS011;34202;52.536;6.042;2023-05-20T13:59:49;2.70;;;1.00;;
48403;SDS011;34202;52.536;6.042;2023-05-20T14:04:50;3.40;;;1.30;;
48403;SDS011;34202;52.536;6.042;2023-05-20T14:09:50;3.40;;;2.00;;
48403;SDS011;34202;52.536;6.042;2023-05-20T14:14:50;4.50;;;1.20;;
48403;SDS011;34202;52.536;6.042;2023-05-20T14:19:51;7.40;;;2.10;;
48403;SDS011;34202;52.536;6.042;2023-05-20T14:24:52;2.10;;;0.90;;
48403;SDS011;34202;52.536;6.042;2023-05-20T14:29:52;8.00;;;2.80;;
48403;SDS011;34202;52.536;6.042;2023-05-20T14:34:52;2.60;;;1.20;;
48403;SDS011;34202;52.536;6.042;2023-05-20T14:39:53;3.30;;;1.40;;
48403;SDS011;34202;52.536;6.042;2023-05-20T14:44:53;1.90;;;1.20;;
48403;SDS011;34202;52.536;6.042;2023-05-20T14:49:54;4.00;;;1.50;;
48403;SDS011;34202;52.536;6.042;2023-05-20T14:54:55;2.50;;;1.40;;
48403;SDS011;34202;52.536;6.042;2023-05-20T14:59:56;3.90;;;1.00;;
48403;SDS011;34202;52.536;6.042;2023-05-20T15:04:56;6.00;;;1.70;;
48403;SDS011;34202;52.536;6.042;2023-05-20T15:09:57;3.90;;;3.40;;
48403;SDS011;34202;52.536;6.042;2023-05-20T15:14:57;3.00;;;1.40;;
48403;SDS011;34202;52.536;6.042;2023-05-20T15:19:57;1.70;;;1.10;;
48403;SDS011;34202;52.536;6.042;2023-05-20T15:24:58;5.70;;;1.50;;
48403;SDS011;34202;52.536;6.042;2023-05-20T15:29:58;2.90;;;1.40;;
48403;SDS011;34202;52.536;6.042;2023-05-20T15:34:58;2.10;;;1.30;;
48403;SDS011;34202;52.536;6.042;2023-05-20T15:40:00;2.60;;;1.00;;
48403;SDS011;34202;52.536;6.042;2023-05-20T15:45:01;8.10;;;1.50;;
48403;SDS011;34202;52.536;6.042;2023-05-20T15:50:01;3.90;;;1.30;;
48403;SDS011;34202;52.536;6.042;2023-05-20T15:55:04;4.30;;;1.10;;
48403;SDS011;34202;52.536;6.042;2023-05-20T16:00:05;3.10;;;1.30;;
48403;SDS011;34202;52.536;6.042;2023-05-20T16:05:09;5.00;;;1.40;;
48403;SDS011;34202;52.536;6.042;2023-05-20T16:10:10;4.60;;;1.90;;
48403;SDS011;34202;52.536;6.042;2023-05-20T16:15:10;4.00;;;1.70;;
48403;SDS011;34202;52.536;6.042;2023-05-20T16:20:11;5.00;;;1.40;;
48403;SDS011;34202;52.536;6.042;2023-05-20T16:25:11;6.90;;;2.00;;
48403;SDS011;34202;52.536;6.042;2023-05-20T16:30:11;5.60;;;1.30;;
48403;SDS011;34202;52.536;6.042;2023-05-20T16:35:12;3.00;;;1.30;;
48403;SDS011;34202;52.536;6.042;2023-05-20T16:40:12;1.50;;;1.20;;
48403;SDS011;34202;52.536;6.042;2023-05-20T16:45:13;3.20;;;1.40;;
48403;SDS011;34202;52.536;6.042;2023-05-20T16:50:13;3.50;;;1.70;;
48403;SDS011;34202;52.536;6.042;2023-05-20T16:55:13;3.80;;;1.60;;
48403;SDS011;34202;52.536;6.042;2023-05-20T17:00:14;5.00;;;1.50;;
48403;SDS011;34202;52.536;6.042;2023-05-20T17:05:15;3.70;;;1.40;;
48403;SDS011;34202;52.536;6.042;2023-05-20T17:10:15;5.70;;;1.50;;
48403;SDS011;34202;52.536;6.042;2023-05-20T17:15:16;2.10;;;1.30;;
48403;SDS011;34202;52.536;6.042;2023-05-20T17:20:16;3.80;;;1.70;;
48403;SDS011;34202;52.536;6.042;2023-05-20T17:25:16;4.00;;;1.60;;
48403;SDS011;34202;52.536;6.042;2023-05-20T17:30:17;2.60;;;1.40;;
48403;SDS011;34202;52.536;6.042;2023-05-20T17:35:17;4.50;;;1.40;;
48403;SDS011;34202;52.536;6.042;2023-05-20T17:40:19;2.90;;;1.60;;
48403;SDS011;34202;52.536;6.042;2023-05-20T17:45:20;2.20;;;1.30;;
48403;SDS011;34202;52.536;6.042;2023-05-20T17:50:20;5.00;;;1.60;;
48403;SDS011;34202;52.536;6.042;2023-05-20T17:55:21;2.20;;;1.10;;
48403;SDS011;34202;52.536;6.042;2023-05-20T18:00:24;4.40;;;1.10;;
48403;SDS011;34202;52.536;6.042;2023-05-20T18:05:25;4.30;;;1.10;;
48403;SDS011;34202;52.536;6.042;2023-05-20T18:10:26;4.80;;;1.70;;
48403;SDS011;34202;52.536;6.042;2023-05-20T18:15:26;1.50;;;1.30;;
48403;SDS011;34202;52.536;6.042;2023-05-20T18:20:27;1.50;;;1.00;;
48403;SDS011;34202;52.536;6.042;2023-05-20T18:25:27;4.50;;;2.20;;
48403;SDS011;34202;52.536;6.042;2023-05-20T18:30:28;7.80;;;1.80;;
48403;SDS011;34202;52.536;6.042;2023-05-20T18:35:28;4.00;;;1.80;;
48403;SDS011;34202;52.536;6.042;2023-05-20T18:40:28;4.50;;;1.60;;
48403;SDS011;34202;52.536;6.042;2023-05-20T18:45:29;3.10;;;1.70;;
48403;SDS011;34202;52.536;6.042;2023-05-20T18:50:29;5.10;;;2.20;;
48403;SDS011;34202;52.536;6.042;2023-05-20T18:55:30;2.00;;;1.40;;
48403;SDS011;34202;52.536;6.042;2023-05-20T19:00:31;5.80;;;1.50;;
48403;SDS011;34202;52.536;6.042;2023-05-20T19:05:31;2.70;;;1.60;;
48403;SDS011;34202;52.536;6.042;2023-05-20T19:10:31;3.10;;;1.40;;
48403;SDS011;34202;52.536;6.042;2023-05-20T19:15:32;4.20;;;2.40;;
48403;SDS011;34202;52.536;6.042;2023-05-20T19:20:33;1.80;;;1.20;;
48403;SDS011;34202;52.536;6.042;2023-05-20T19:25:33;2.40;;;1.50;;
48403;SDS011;34202;52.536;6.042;2023-05-20T19:30:34;2.50;;;1.30;;
48403;SDS011;34202;52.536;6.042;2023-05-20T19:35:34;2.80;;;1.60;;
48403;SDS011;34202;52.536;6.042;2023-05-20T19:40:35;4.80;;;1.50;;
48403;SDS011;34202;52.536;6.042;2023-05-20T19:45:35;2.40;;;1.80;;
48403;SDS011;34202;52.536;6.042;2023-05-20T19:50:36;5.50;;;2.10;;
48403;SDS011;34202;52.536;6.042;2023-05-20T19:55:36;6.50;;;3.70;;
48403;SDS011;34202;52.536;6.042;2023-05-20T20:00:37;5.20;;;1.80;;
48403;SDS011;34202;52.536;6.042;2023-05-20T20:05:38;5.40;;;1.80;;
48403;SDS011;34202;52.536;6.042;2023-05-20T20:10:38;6.50;;;2.10;;
48403;SDS011;34202;52.536;6.042;2023-05-20T20:15:38;3.70;;;2.30;;
48403;SDS011;34202;52.536;6.042;2023-05-20T20:20:39;2.60;;;2.10;;
48403;SDS011;34202;52.536;6.042;2023-05-20T20:25:39;4.20;;;2.50;;
48403;SDS011;34202;52.536;6.042;2023-05-20T20:30:40;5.00;;;2.40;;
48403;SDS011;34202;52.536;6.042;2023-05-20T20:35:40;3.20;;;1.50;;
48403;SDS011;34202;52.536;6.042;2023-05-20T20:40:41;3.90;;;1.90;;
48403;SDS011;34202;52.536;6.042;2023-05-20T20:45:43;5.90;;;2.20;;
48403;SDS011;34202;52.536;6.042;2023-05-20T20:50:49;4.40;;;2.50;;
48403;SDS011;34202;52.536;6.042;2023-05-20T20:55:49;3.10;;;1.60;;
48403;SDS011;34202;52.536;6.042;2023-05-20T21:00:50;4.10;;;1.90;;
48403;SDS011;34202;52.536;6.042;2023-05-20T21:05:52;2.90;;;2.20;;
48403;SDS011;34202;52.536;6.042;2023-05-20T21:10:53;6.20;;;2.50;;
48403;SDS011;34202;52.536;6.042;2023-05-20T21:15:58;6.00;;;3.30;;
48403;SDS011;34202;52.536;6.042;2023-05-20T21:20:59;2.90;;;2.20;;
48403;SDS011;34202;52.536;6.042;2023-05-20T21:25:59;7.30;;;1.90;;
48403;SDS011;34202;52.536;6.042;2023-05-20T21:31:00;3.20;;;2.30;;
48403;SDS011;34202;52.536;6.042;2023-05-20T21:36:00;3.50;;;1.90;;
48403;SDS011;34202;52.536;6.042;2023-05-20T21:41:01;4.80;;;2.00;;
48403;SDS011;34202;52.536;6.042;2023-05-20T21:46:01;2.00;;;1.60;;
48403;SDS011;34202;52.536;6.042;2023-05-20T21:51:02;3.20;;;2.30;;
48403;SDS011;34202;52.536;6.042;2023-05-20T21:56:02;5.10;;;2.40;;
48403;SDS011;34202;52.536;6.042;2023-05-20T22:01:03;3.80;;;2.20;;
48403;SDS011;34202;52.536;6.042;2023-05-20T22:06:04;6.50;;;2.60;;
48403;SDS011;34202;52.536;6.042;2023-05-20T22:11:05;5.90;;;2.60;;
48403;SDS011;34202;52.536;6.042;2023-05-20T22:16:06;4.90;;;3.30;;
48403;SDS011;34202;52.536;6.042;2023-05-20T22:21:07;2.40;;;2.10;;
48403;SDS011;34202;52.536;6.042;2023-05-20T22:26:08;6.10;;;3.40;;
48403;SDS011;34202;52.536;6.042;2023-05-20T22:31:08;3.20;;;2.00;;
48403;SDS011;34202;52.536;6.042;2023-05-20T22:36:09;3.30;;;2.20;;
48403;SDS011;34202;52.536;6.042;2023-05-20T22:41:09;2.60;;;2.00;;
48403;SDS011;34202;52.536;6.042;2023-05-20T22:46:10;4.10;;;2.10;;
48403;SDS011;34202;52.536;6.042;2023-05-20T22:51:10;3.80;;;2.80;;
48403;SDS011;34202;52.536;6.042;2023-05-20T22:56:13;3.50;;;2.60;;
48403;SDS011;34202;52.536;6.042;2023-05-20T23:01:14;6.00;;;3.60;;
48403;SDS011;34202;52.536;6.042;2023-05-20T23:06:15;7.40;;;3.10;;
48403;SDS011;34202;52.536;6.042;2023-05-20T23:11:16;5.90;;;2.90;;
48403;SDS011;34202;52.536;6.042;2023-05-20T23:16:16;3.50;;;2.60;;
48403;SDS011;34202;52.536;6.042;2023-05-20T23:21:17;8.20;;;3.70;;
48403;SDS011;34202;52.536;6.042;2023-05-20T23:26:18;2.70;;;2.50;;
48403;SDS011;34202;52.536;6.042;2023-05-20T23:31:18;5.30;;;2.90;;
48403;SDS011;34202;52.536;6.042;2023-05-20T23:36:19;4.30;;;2.90;;
48403;SDS011;34202;52.536;6.042;2023-05-20T23:41:22;6.00;;;2.90;;
48403;SDS011;34202;52.536;6.042;2023-05-20T23:46:22;4.10;;;3.50;;
48403;SDS011;34202;52.536;6.042;2023-05-20T23:51:22;4.30;;;2.90;;
48403;SDS011;34202;52.536;6.042;2023-05-20T23:56:23;4.20;;;3.30;;
